Time;durP1;ratioP1;P1;durP2;ratioP2;P2;SDS_P1;SDS_P2;PMS_P1;PMS_P2;Temp;Humidity;BMP_temperature;BMP_pressure;BME280_temperature;BME280_humidity;BME280_pressure;Samples;Min_cycle;Max_cycle;Signal;HPM_P1;HPM_P2
2023/07/10 00:01:15;;;;;;;24.67;8.68;;;19.40;93.70;;;;;;5061640;28;20427;-46
2023/07/10 00:03:42;;;;;;;18.88;8.27;;;19.40;93.70;;;;;;5063102;28;20032;-47
2023/07/10 00:06:14;;;;;;;13.85;7.43;;;19.30;93.80;;;;;;5059218;28;20029;-47
2023/07/10 00:08:41;;;;;;;19.60;8.88;;;19.30;94.00;;;;;;5059723;28;20100;-46
2023/07/10 00:11:26;;;;;;;14.30;7.82;;;19.30;93.90;;;;;;5065533;28;20032;-47
2023/07/10 00:13:54;;;;;;;19.67;9.30;;;19.30;94.00;;;;;;5073079;28;20430;-45
2023/07/10 00:16:25;;;;;;;15.68;8.85;;;19.30;93.90;;;;;;5049998;28;20033;-45
2023/07/10 00:18:56;;;;;;;19.02;8.63;;;19.30;94.00;;;;;;5052648;28;20363;-45
2023/07/10 00:21:25;;;;;;;16.88;9.02;;;19.40;94.00;;;;;;5063005;28;20061;-45
2023/07/10 00:23:52;;;;;;;24.27;10.02;;;19.30;93.90;;;;;;5051614;28;20024;-45
2023/07/10 00:26:25;;;;;;;21.92;10.30;;;19.40;93.90;;;;;;5072392;28;20033;-45
2023/07/10 00:28:56;;;;;;;16.23;8.73;;;19.30;93.80;;;;;;5067729;28;20029;-46
2023/07/10 00:31:27;;;;;;;23.98;10.27;;;19.20;93.70;;;;;;5066146;28;20343;-44
2023/07/10 00:33:54;;;;;;;23.05;10.60;;;19.10;93.50;;;;;;5053812;28;20069;-45
2023/07/10 00:36:40;;;;;;;23.63;9.40;;;19.00;93.50;;;;;;5066745;28;20025;-45
2023/07/10 00:39:25;;;;;;;15.93;8.45;;;18.90;93.70;;;;;;5071799;28;20020;-45
2023/07/10 00:42:16;;;;;;;17.50;9.10;;;18.90;93.80;;;;;;5064644;28;20025;-44
2023/07/10 00:44:49;;;;;;;16.40;8.55;;;18.90;93.90;;;;;;5051496;28;20064;-45
2023/07/10 00:47:18;;;;;;;21.00;9.32;;;18.90;94.20;;;;;;5069778;28;20113;-45
2023/07/10 00:50:03;;;;;;;19.27;10.23;;;18.90;94.20;;;;;;5070257;28;20044;-45
2023/07/10 00:52:42;;;;;;;19.52;10.30;;;18.90;94.20;;;;;;5071585;28;20033;-44
2023/07/10 00:55:26;;;;;;;21.30;10.55;;;18.90;94.30;;;;;;5071514;28;20381;-44
2023/07/10 00:58:05;;;;;;;26.70;11.13;;;18.90;94.50;;;;;;5071739;28;20362;-46
2023/07/10 01:00:34;;;;;;;20.42;9.50;;;18.90;94.60;;;;;;5063923;28;20036;-55
2023/07/10 01:03:01;;;;;;;27.50;10.90;;;18.80;94.70;;;;;;5052080;28;20031;-52
2023/07/10 01:05:31;;;;;;;16.88;8.73;;;18.90;94.80;;;;;;5068084;28;20036;-50
2023/07/10 01:07:59;;;;;;;18.85;10.05;;;18.90;94.70;;;;;;5059420;28;20028;-49
2023/07/10 01:10:26;;;;;;;26.60;10.98;;;18.90;94.60;;;;;;5066569;28;20369;-51
2023/07/10 01:12:55;;;;;;;22.25;9.88;;;19.00;94.60;;;;;;5071744;28;20024;-47
2023/07/10 01:15:23;;;;;;;26.88;9.85;;;18.90;94.60;;;;;;5073147;28;20095;-45
2023/07/10 01:17:49;;;;;;;23.77;10.07;;;18.90;94.70;;;;;;5075608;28;20044;-47
2023/07/10 01:20:45;;;;;;;22.38;10.63;;;18.90;94.70;;;;;;5074910;28;20339;-46
2023/07/10 01:23:12;;;;;;;21.75;11.18;;;18.90;94.70;;;;;;5065938;28;20021;-46
2023/07/10 01:25:59;;;;;;;23.60;11.52;;;18.90;94.70;;;;;;5056185;28;20036;-45
2023/07/10 01:28:28;;;;;;;23.55;9.88;;;18.90;94.70;;;;;;5074232;28;20028;-46
2023/07/10 01:30:56;;;;;;;19.00;11.27;;;18.90;94.70;;;;;;5067464;28;20174;-48
2023/07/10 01:33:33;;;;;;;20.55;9.52;;;18.90;94.70;;;;;;5073760;28;20540;-48
2023/07/10 01:36:01;;;;;;;24.70;10.20;;;19.00;94.80;;;;;;5055646;28;20051;-50
2023/07/10 01:38:43;;;;;;;17.52;9.82;;;19.00;94.70;;;;;;5037908;28;20021;-49
2023/07/10 01:41:18;;;;;;;17.08;9.13;;;19.00;94.60;;;;;;5059644;28;20037;-48
2023/07/10 01:43:46;;;;;;;13.20;8.82;;;19.10;94.70;;;;;;5064473;28;20028;-46
2023/07/10 01:46:23;;;;;;;16.75;9.32;;;19.10;94.60;;;;;;5067481;28;20029;-45
2023/07/10 01:48:56;;;;;;;18.48;9.23;;;19.10;94.60;;;;;;5055240;28;20494;-46
2023/07/10 01:51:23;;;;;;;18.27;9.38;;;19.10;94.50;;;;;;5055495;28;20342;-45
2023/07/10 01:53:50;;;;;;;17.98;8.43;;;19.00;94.40;;;;;;5065411;28;20419;-45
2023/07/10 01:56:20;;;;;;;19.88;10.55;;;19.10;94.40;;;;;;5067672;28;20032;-44
2023/07/10 01:58:50;;;;;;;25.73;11.85;;;19.00;94.40;;;;;;5062277;28;20031;-45
2023/07/10 02:01:18;;;;;;;;;;;18.90;94.40;;;;;;5074541;28;20388;-44
2023/07/10 02:03:44;;;;;;;16.55;9.63;;;18.90;94.60;;;;;;5074204;28;19962;-45
2023/07/10 02:06:12;;;;;;;22.48;10.90;;;18.90;94.60;;;;;;5055818;28;20056;-45
2023/07/10 02:08:39;;;;;;;15.20;9.60;;;18.90;94.50;;;;;;5075031;28;20082;-45
2023/07/10 02:11:06;;;;;;;14.52;10.48;;;18.90;94.60;;;;;;5073057;28;20040;-45
2023/07/10 02:13:33;;;;;;;18.85;9.98;;;18.90;94.60;;;;;;5073740;28;20024;-45
2023/07/10 02:16:04;;;;;;;19.63;9.07;;;18.90;94.60;;;;;;5052414;28;20402;-45
2023/07/10 02:18:31;;;;;;;15.82;8.30;;;18.90;94.50;;;;;;5065565;28;20394;-44
2023/07/10 02:20:58;;;;;;;20.33;10.60;;;18.90;94.50;;;;;;5056186;28;20319;-45
2023/07/10 02:23:25;;;;;;;21.92;10.80;;;18.90;94.20;;;;;;5070960;28;20037;-45
2023/07/10 02:25:51;;;;;;;17.67;8.80;;;18.80;94.30;;;;;;5055412;28;20067;-47
2023/07/10 02:28:18;;;;;;;16.95;8.10;;;18.90;94.50;;;;;;5072940;28;20032;-44
2023/07/10 02:30:44;;;;;;;19.45;8.85;;;18.90;94.50;;;;;;5068463;28;20432;-45
2023/07/10 02:33:11;;;;;;;19.63;8.15;;;18.90;94.50;;;;;;5072183;28;20021;-47
2023/07/10 02:35:38;;;;;;;16.58;8.30;;;18.90;94.30;;;;;;5072058;28;20097;-44
2023/07/10 02:38:05;;;;;;;15.02;8.88;;;18.90;94.40;;;;;;5071099;28;20031;-44
2023/07/10 02:40:32;;;;;;;18.90;8.93;;;18.90;94.40;;;;;;5063154;28;20021;-46
2023/07/10 02:42:58;;;;;;;18.95;8.80;;;18.90;94.40;;;;;;5070375;28;20085;-45
2023/07/10 02:45:28;;;;;;;13.20;8.48;;;18.90;94.30;;;;;;5070519;28;20044;-44
2023/07/10 02:47:55;;;;;;;17.50;9.73;;;18.90;94.30;;;;;;5072818;28;20029;-45
2023/07/10 02:50:22;;;;;;;14.18;7.70;;;18.90;94.30;;;;;;5067505;28;20052;-45
2023/07/10 02:52:48;;;;;;;15.85;8.45;;;19.00;94.30;;;;;;5062305;28;20085;-45
2023/07/10 02:55:15;;;;;;;12.13;7.53;;;19.00;94.40;;;;;;5073264;28;20342;-47
2023/07/10 02:57:43;;;;;;;15.50;8.32;;;19.00;94.40;;;;;;5072669;28;20068;-45
2023/07/10 03:00:14;;;;;;;20.83;10.10;;;19.00;94.40;;;;;;5064292;28;20197;-45
2023/07/10 03:02:41;;;;;;;15.05;7.63;;;19.00;94.30;;;;;;5071779;28;20103;-44
2023/07/10 03:05:08;;;;;;;15.40;9.25;;;19.00;94.40;;;;;;5069878;28;20032;-48
2023/07/10 03:07:35;;;;;;;21.08;10.45;;;19.00;94.30;;;;;;5071568;28;20032;-46
2023/07/10 03:10:02;;;;;;;21.52;10.60;;;19.00;94.30;;;;;;5071478;28;20398;-45
2023/07/10 03:12:29;;;;;;;20.02;11.43;;;18.90;94.40;;;;;;5068316;28;20169;-44
2023/07/10 03:14:55;;;;;;;29.02;12.77;;;18.90;94.50;;;;;;5069669;28;20036;-45
2023/07/10 03:17:21;;;;;;;21.23;11.07;;;18.90;94.50;;;;;;5072136;28;20032;-44
2023/07/10 03:19:50;;;;;;;20.38;10.88;;;18.90;94.70;;;;;;5070779;28;20031;-45
2023/07/10 03:22:18;;;;;;;23.73;12.05;;;18.90;94.80;;;;;;5062825;28;20034;-46
2023/07/10 03:24:45;;;;;;;21.63;13.13;;;18.90;94.80;;;;;;5068506;28;20033;-45
2023/07/10 03:27:12;;;;;;;17.88;12.07;;;18.90;94.80;;;;;;5072671;28;20029;-45
2023/07/10 03:29:41;;;;;;;21.65;11.32;;;18.90;94.90;;;;;;5070885;28;20025;-43
2023/07/10 03:32:07;;;;;;;25.87;12.50;;;18.90;95.00;;;;;;5069768;28;20020;-45
2023/07/10 03:34:34;;;;;;;32.15;13.50;;;18.90;95.00;;;;;;5052670;28;20072;-46
2023/07/10 03:37:02;;;;;;;20.38;12.25;;;18.90;95.10;;;;;;5067852;28;20024;-44
2023/07/10 03:39:29;;;;;;;18.73;10.07;;;18.90;95.10;;;;;;5070473;28;20103;-45
2023/07/10 03:41:56;;;;;;;17.88;9.73;;;18.90;95.10;;;;;;5060355;28;20640;-46
2023/07/10 03:44:23;;;;;;;27.70;13.85;;;18.90;95.10;;;;;;5069567;28;20044;-46
2023/07/10 03:46:50;;;;;;;32.28;14.20;;;18.90;95.00;;;;;;5068758;28;20029;-43
2023/07/10 03:49:17;;;;;;;26.55;13.85;;;18.90;95.10;;;;;;5071100;28;20048;-45
2023/07/10 03:51:47;;;;;;;25.13;13.48;;;18.80;95.20;;;;;;5052798;28;20025;-44
2023/07/10 03:54:16;;;;;;;32.60;14.15;;;18.80;95.30;;;;;;5060359;28;20106;-45
2023/07/10 03:56:42;;;;;;;25.52;12.85;;;18.90;95.40;;;;;;5056494;28;20025;-44
2023/07/10 03:59:12;;;;;;;24.50;13.38;;;18.80;95.30;;;;;;5070423;28;20024;-44
2023/07/10 04:01:39;;;;;;;24.02;12.43;;;18.70;95.40;;;;;;5065395;28;20025;-44
2023/07/10 04:04:05;;;;;;;23.23;12.23;;;18.70;95.30;;;;;;5069113;28;20068;-45
2023/07/10 04:06:40;;;;;;;22.20;12.57;;;18.60;95.40;;;;;;5072107;28;20020;-43
2023/07/10 04:09:07;;;;;;;18.88;12.55;;;18.70;95.40;;;;;;5068437;28;20086;-46
2023/07/10 04:11:33;;;;;;;22.33;12.45;;;18.70;95.50;;;;;;5070718;28;20036;-44
2023/07/10 04:14:01;;;;;;;20.45;12.82;;;18.70;95.40;;;;;;5054848;28;20426;-44
2023/07/10 04:16:29;;;;;;;20.38;11.60;;;18.70;95.30;;;;;;5071976;28;20032;-44
2023/07/10 04:18:56;;;;;;;24.13;11.85;;;18.70;95.40;;;;;;5040916;28;20128;-43
2023/07/10 04:21:28;;;;;;;28.85;13.13;;;18.70;95.30;;;;;;5032608;28;20030;-44
2023/07/10 04:23:56;;;;;;;20.38;12.10;;;18.60;95.30;;;;;;5043121;28;20101;-44
2023/07/10 04:26:28;;;;;;;22.33;10.32;;;18.60;95.40;;;;;;5032641;28;20025;-45
2023/07/10 04:28:55;;;;;;;21.35;11.55;;;18.60;95.50;;;;;;5047065;28;20029;-44
2023/07/10 04:31:24;;;;;;;14.55;10.98;;;18.70;95.50;;;;;;5051070;28;20017;-43
2023/07/10 04:33:52;;;;;;;25.77;12.13;;;18.70;95.40;;;;;;5050755;28;20029;-43
2023/07/10 04:36:19;;;;;;;21.63;12.00;;;18.70;95.40;;;;;;5049128;28;20656;-44
2023/07/10 04:38:46;;;;;;;20.80;12.73;;;18.70;95.40;;;;;;5050946;28;20083;-43
2023/07/10 04:41:14;;;;;;;20.70;11.07;;;18.70;95.40;;;;;;5051055;28;20393;-46
2023/07/10 04:43:41;;;;;;;21.75;11.30;;;18.90;95.50;;;;;;5049732;28;20029;-42
2023/07/10 04:46:13;;;;;;;22.10;11.35;;;18.90;95.50;;;;;;5050087;28;20025;-44
2023/07/10 04:48:42;;;;;;;17.45;10.95;;;18.90;95.40;;;;;;5055948;28;20366;-45
2023/07/10 04:51:10;;;;;;;18.13;10.68;;;18.90;95.30;;;;;;5050856;28;20025;-43
2023/07/10 04:53:37;;;;;;;18.17;10.45;;;18.90;95.20;;;;;;5054291;28;20028;-47
2023/07/10 04:56:06;;;;;;;22.05;10.98;;;18.90;95.20;;;;;;5052064;28;20122;-44
2023/07/10 04:58:56;;;;;;;20.13;11.40;;;18.90;95.10;;;;;;5054133;28;20029;-44
2023/07/10 05:01:26;;;;;;;30.00;11.82;;;18.90;95.20;;;;;;5050230;28;20029;-42
2023/07/10 05:03:54;;;;;;;20.20;11.20;;;18.80;95.20;;;;;;5052196;28;20104;-46
2023/07/10 05:06:21;;;;;;;20.92;12.60;;;18.80;95.30;;;;;;5038189;28;20052;-44
2023/07/10 05:08:53;;;;;;;22.83;12.10;;;18.80;95.30;;;;;;5055956;28;20090;-51
2023/07/10 05:11:20;;;;;;;18.58;10.93;;;18.70;95.20;;;;;;5055909;28;20032;-47
2023/07/10 05:13:47;;;;;;;25.10;12.40;;;18.70;95.30;;;;;;5050982;28;20033;-47
2023/07/10 05:16:15;;;;;;;26.45;13.23;;;18.70;95.40;;;;;;5052780;28;20037;-46
2023/07/10 05:18:41;;;;;;;23.17;13.20;;;18.70;95.40;;;;;;5061602;28;20044;-46
2023/07/10 05:21:11;;;;;;;20.42;13.18;;;18.70;95.40;;;;;;5071591;28;20036;-47
2023/07/10 05:23:38;;;;;;;25.60;12.13;;;18.70;95.40;;;;;;5073560;28;20028;-46
2023/07/10 05:26:13;;;;;;;20.63;12.82;;;18.60;95.40;;;;;;5071818;28;20109;-45
2023/07/10 05:28:41;;;;;;;20.63;12.88;;;18.60;95.40;;;;;;5074152;28;20086;-47
2023/07/10 05:31:12;;;;;;;22.98;12.23;;;18.60;95.50;;;;;;5073718;28;20086;-44
2023/07/10 05:33:39;;;;;;;25.60;14.70;;;18.70;95.70;;;;;;5073187;28;20031;-45
2023/07/10 05:36:10;;;;;;;23.08;13.63;;;18.80;95.60;;;;;;5073021;28;20959;-44
2023/07/10 05:38:37;;;;;;;23.55;13.45;;;18.80;95.50;;;;;;5071087;28;20029;-44
2023/07/10 05:41:03;;;;;;;19.90;12.07;;;18.90;95.60;;;;;;5073842;28;20060;-45
2023/07/10 05:43:30;;;;;;;23.83;13.00;;;18.90;95.30;;;;;;5069916;28;20033;-44
2023/07/10 05:45:58;;;;;;;19.73;14.25;;;18.90;95.40;;;;;;5070040;28;20381;-44
2023/07/10 05:48:25;;;;;;;20.90;12.68;;;18.90;95.20;;;;;;5072490;28;20035;-46
2023/07/10 05:50:51;;;;;;;22.20;13.57;;;18.80;95.20;;;;;;5068553;28;20039;-44
2023/07/10 05:53:19;;;;;;;23.23;14.55;;;18.90;95.20;;;;;;5073731;28;20023;-44
2023/07/10 05:55:47;;;;;;;23.15;13.52;;;18.90;95.10;;;;;;5071036;28;20028;-45
2023/07/10 05:58:15;;;;;;;22.15;13.45;;;19.00;95.20;;;;;;5073327;28;20028;-43
2023/07/10 06:00:42;;;;;;;21.88;12.52;;;19.10;95.10;;;;;;5071186;28;20104;-44
2023/07/10 06:03:10;;;;;;;15.95;13.35;;;19.10;94.70;;;;;;5054070;28;20042;-46
2023/07/10 06:05:37;;;;;;;20.30;10.82;;;19.40;94.90;;;;;;5065406;28;20032;-46
2023/07/10 06:08:05;;;;;;;21.05;11.50;;;19.40;94.40;;;;;;5068267;28;20023;-48
2023/07/10 06:10:33;;;;;;;19.25;12.20;;;19.40;94.30;;;;;;5069544;28;20028;-45
2023/07/10 06:13:00;;;;;;;19.10;10.15;;;19.50;94.10;;;;;;5066503;28;20035;-48
2023/07/10 06:15:27;;;;;;;18.90;9.05;;;19.40;93.70;;;;;;5065611;28;20039;-46
2023/07/10 06:17:54;;;;;;;13.38;9.30;;;19.40;93.60;;;;;;5068621;28;20608;-46
2023/07/10 06:20:21;;;;;;;19.50;10.82;;;19.40;93.70;;;;;;5064050;28;20036;-45
2023/07/10 06:22:48;;;;;;;17.02;10.38;;;19.50;93.80;;;;;;5068758;28;20043;-45
2023/07/10 06:25:15;;;;;;;13.45;9.43;;;19.40;93.50;;;;;;5050790;28;20048;-44
2023/07/10 06:27:40;;;;;;;19.58;10.27;;;19.30;93.40;;;;;;5050691;28;20036;-45
2023/07/10 06:30:08;;;;;;;17.80;10.25;;;19.20;93.30;;;;;;5067171;28;20033;-47
2023/07/10 06:32:35;;;;;;;18.23;10.70;;;19.20;93.50;;;;;;5065084;28;20029;-45
2023/07/10 06:35:03;;;;;;;18.35;11.35;;;19.20;93.70;;;;;;5070259;28;20082;-45
2023/07/10 06:37:30;;;;;;;16.95;11.63;;;19.20;93.70;;;;;;5069198;28;20040;-45
2023/07/10 06:40:15;;;;;;;18.25;11.73;;;19.10;93.60;;;;;;5065267;28;20362;-45
2023/07/10 06:42:42;;;;;;;18.85;11.98;;;19.10;93.70;;;;;;5064128;28;20031;-46
2023/07/10 06:45:11;;;;;;;16.48;13.15;;;19.10;93.80;;;;;;5042397;28;20165;-46
2023/07/10 06:47:43;;;;;;;17.53;13.43;;;19.20;93.80;;;;;;5067623;28;20178;-45
2023/07/10 06:50:11;;;;;;;15.98;14.18;;;18.90;93.20;;;;;;5066940;28;20088;-44
2023/07/10 06:52:40;;;;;;;18.30;13.98;;;18.90;93.50;;;;;;5064599;28;20025;-47
2023/07/10 06:55:10;;;;;;;17.60;13.73;;;18.90;93.40;;;;;;5067227;28;20037;-45
2023/07/10 06:57:37;;;;;;;19.75;15.93;;;18.90;93.50;;;;;;5062304;28;20051;-45
2023/07/10 07:00:08;;;;;;;17.15;14.25;;;19.00;93.60;;;;;;5047963;28;20174;-47
2023/07/10 07:02:36;;;;;;;17.92;13.70;;;19.00;93.50;;;;;;5065357;28;20032;-46
2023/07/10 07:05:04;;;;;;;18.02;13.25;;;18.90;93.10;;;;;;5066677;28;20032;-47
2023/07/10 07:07:31;;;;;;;16.38;12.63;;;18.90;93.00;;;;;;5065543;28;20035;-48
2023/07/10 07:09:59;;;;;;;15.40;12.48;;;18.90;93.00;;;;;;5046172;28;20493;-45
2023/07/10 07:12:32;;;;;;;15.55;13.65;;;19.00;93.20;;;;;;5064908;28;20032;-48
2023/07/10 07:14:58;;;;;;;20.20;14.13;;;19.10;93.10;;;;;;5064348;28;20085;-47
2023/07/10 07:17:25;;;;;;;16.80;13.48;;;19.20;92.90;;;;;;5067202;28;20090;-50
2023/07/10 07:19:52;;;;;;;14.43;12.82;;;19.30;92.90;;;;;;5067185;28;20044;-47
2023/07/10 07:22:19;;;;;;;14.98;13.40;;;19.20;92.40;;;;;;5064148;28;20032;-47
2023/07/10 07:24:46;;;;;;;11.55;9.65;;;19.20;92.50;;;;;;5068095;28;20428;-47
2023/07/10 07:27:14;;;;;;;16.42;12.95;;;19.40;92.60;;;;;;5067278;28;20123;-49
2023/07/10 07:29:41;;;;;;;16.70;12.38;;;19.50;91.80;;;;;;5065800;28;20381;-47
2023/07/10 07:32:10;;;;;;;14.95;11.35;;;19.50;91.30;;;;;;5066604;28;20346;-50
2023/07/10 07:34:39;;;;;;;15.27;10.13;;;19.60;91.10;;;;;;5054966;28;20395;-47
2023/07/10 07:37:06;;;;;;;14.07;10.35;;;19.70;90.50;;;;;;5064390;28;20032;-49
2023/07/10 07:39:33;;;;;;;12.38;10.75;;;19.80;90.60;;;;;;5047832;28;20024;-48
2023/07/10 07:42:01;;;;;;;12.45;11.15;;;20.20;89.90;;;;;;5064251;28;20025;-48
2023/07/10 07:44:28;;;;;;;14.90;9.68;;;20.50;89.10;;;;;;5068224;28;20047;-50
2023/07/10 07:46:57;;;;;;;15.93;9.93;;;20.70;88.40;;;;;;5065712;28;20039;-46
2023/07/10 07:49:24;;;;;;;11.43;9.35;;;20.70;87.80;;;;;;5066160;28;20040;-45
2023/07/10 07:51:52;;;;;;;10.23;7.97;;;20.70;87.20;;;;;;5060779;28;20111;-46
2023/07/10 07:54:19;;;;;;;10.68;9.55;;;20.90;87.60;;;;;;5068590;28;20786;-46
2023/07/10 07:56:46;;;;;;;10.70;8.32;;;20.80;86.20;;;;;;5066776;28;20117;-45
2023/07/10 07:59:13;;;;;;;10.50;9.40;;;20.80;86.90;;;;;;5068418;28;20013;-45
2023/07/10 08:01:40;;;;;;;12.85;8.35;;;20.60;86.70;;;;;;5063707;28;20024;-46
2023/07/10 08:04:06;;;;;;;11.35;8.40;;;20.60;87.00;;;;;;5066030;28;20086;-46
2023/07/10 08:06:33;;;;;;;9.02;7.28;;;20.60;86.70;;;;;;5067551;28;20028;-48
2023/07/10 08:09:00;;;;;;;11.55;8.68;;;20.90;87.40;;;;;;5066063;28;20082;-46
2023/07/10 08:11:26;;;;;;;8.25;7.07;;;21.10;85.90;;;;;;5064999;28;20029;-45
2023/07/10 08:13:53;;;;;;;8.55;6.50;;;21.20;85.70;;;;;;5068244;28;20366;-49
2023/07/10 08:16:20;;;;;;;10.35;6.45;;;21.40;84.80;;;;;;5062107;28;20069;-47
2023/07/10 08:18:47;;;;;;;10.13;6.82;;;21.40;84.30;;;;;;5041297;28;20068;-45
2023/07/10 08:21:17;;;;;;;10.20;6.55;;;21.50;84.10;;;;;;5050149;28;20037;-47
2023/07/10 08:23:42;;;;;;;9.52;5.40;;;21.50;84.10;;;;;;5050424;28;20025;-44
2023/07/10 08:26:09;;;;;;;7.82;4.28;;;21.90;82.80;;;;;;5032488;28;20051;-46
2023/07/10 08:28:36;;;;;;;7.93;4.43;;;21.90;80.60;;;;;;5030995;28;20044;-45
2023/07/10 08:31:03;;;;;;;5.82;3.50;;;22.20;80.70;;;;;;5048501;28;20025;-47
2023/07/10 08:33:30;;;;;;;8.20;3.63;;;22.40;80.40;;;;;;5052109;28;20526;-45
2023/07/10 08:36:04;;;;;;;7.25;3.00;;;22.90;79.20;;;;;;5050095;28;20378;-49
2023/07/10 08:38:33;;;;;;;6.15;2.85;;;22.80;76.20;;;;;;5047104;28;20028;-46
2023/07/10 08:41:02;;;;;;;6.15;2.72;;;22.50;76.30;;;;;;5050221;28;20055;-48
2023/07/10 08:43:38;;;;;;;4.63;2.67;;;22.70;76.60;;;;;;5029421;28;20033;-48
2023/07/10 08:46:25;;;;;;;4.82;3.20;;;22.90;76.90;;;;;;5042235;28;20114;-46
2023/07/10 08:49:03;;;;;;;6.88;3.05;;;23.30;76.60;;;;;;5051270;28;20367;-46
2023/07/10 08:51:53;;;;;;;5.38;2.65;;;23.30;75.30;;;;;;5054188;28;20149;-47
2023/07/10 08:54:20;;;;;;;7.15;3.15;;;23.70;74.30;;;;;;5048680;28;20597;-46
2023/07/10 08:56:48;;;;;;;5.05;2.78;;;24.50;74.60;;;;;;5057885;28;20044;-46
2023/07/10 08:59:33;;;;;;;6.18;3.30;;;25.00;69.90;;;;;;5055207;28;21234;-46
2023/07/10 09:02:00;;;;;;;4.65;2.05;;;24.80;70.70;;;;;;5047501;28;20639;-46
2023/07/10 09:04:29;;;;;;;5.40;2.05;;;24.10;70.00;;;;;;5048302;28;20112;-52
2023/07/10 09:07:01;;;;;;;5.88;1.77;;;24.10;70.20;;;;;;5049213;28;20435;-49
2023/07/10 09:09:49;;;;;;;6.38;1.90;;;23.60;69.20;;;;;;5034816;28;20091;-51
2023/07/10 09:12:28;;;;;;;5.50;1.92;;;23.30;69.80;;;;;;5049170;28;20025;-47
2023/07/10 09:15:06;;;;;;;5.75;2.40;;;23.80;70.50;;;;;;5048982;28;20112;-49
2023/07/10 09:18:19;;;;;;;5.57;1.92;;;23.70;65.30;;;;;;5045891;28;20044;-51
2023/07/10 09:20:53;;;;;;;5.35;1.88;;;23.90;65.00;;;;;;5064984;28;20781;-46
2023/07/10 09:23:30;;;;;;;4.30;1.88;;;24.20;67.40;;;;;;5052593;28;20132;-46
2023/07/10 09:26:18;;;;;;;8.15;2.53;;;24.60;68.00;;;;;;5070626;28;20140;-52
2023/07/10 09:29:09;;;;;;;7.22;2.15;;;24.90;64.00;;;;;;5066269;28;20477;-47
2023/07/10 09:32:17;;;;;;;8.13;2.00;;;24.60;64.40;;;;;;5049162;28;20032;-48
2023/07/10 09:34:55;;;;;;;8.10;2.50;;;24.50;63.00;;;;;;5065595;28;20037;-47
2023/07/10 09:37:29;;;;;;;4.72;1.50;;;24.70;64.50;;;;;;5061955;28;20037;-47
2023/07/10 09:39:55;;;;;;;6.10;2.15;;;25.00;63.70;;;;;;5067839;28;20450;-46
2023/07/10 09:42:33;;;;;;;5.47;2.03;;;24.90;61.60;;;;;;5065427;28;20028;-48
2023/07/10 09:45:01;;;;;;;7.15;2.25;;;24.30;62.90;;;;;;5065426;28;20032;-47
2023/07/10 09:47:41;;;;;;;5.15;1.88;;;24.50;63.20;;;;;;5067528;28;20128;-51
2023/07/10 09:50:15;;;;;;;6.25;1.95;;;25.10;63.80;;;;;;5040968;28;20373;-52
2023/07/10 09:52:50;;;;;;;8.93;2.63;;;25.40;61.70;;;;;;5067767;28;20034;-50
2023/07/10 09:55:19;;;;;;;4.95;2.15;;;25.60;62.90;;;;;;5067463;28;20094;-46
2023/07/10 09:58:11;;;;;;;7.18;2.40;;;25.60;61.00;;;;;;5069419;28;20036;-50
2023/07/10 10:00:44;;;;;;;4.43;1.80;;;24.80;60.10;;;;;;5066188;28;20060;-47
2023/07/10 10:03:25;;;;;;;6.22;1.75;;;25.20;63.80;;;;;;5068783;28;20020;-48
2023/07/10 10:05:56;;;;;;;4.03;2.28;;;25.80;60.80;;;;;;5066781;28;20465;-47
2023/07/10 10:08:45;;;;;;;4.47;1.75;;;26.00;58.40;;;;;;5069996;28;20020;-50
2023/07/10 10:11:14;;;;;;;6.45;2.20;;;25.40;59.20;;;;;;5069086;28;20342;-47
2023/07/10 10:13:58;;;;;;;6.00;2.25;;;25.70;61.20;;;;;;5049336;28;20070;-52
2023/07/10 10:17:01;;;;;;;4.80;1.75;;;25.40;58.60;;;;;;5067255;28;20041;-52
2023/07/10 10:19:36;;;;;;;5.57;2.40;;;25.30;60.10;;;;;;5047565;28;20048;-49
2023/07/10 10:22:13;;;;;;;5.65;1.80;;;25.30;59.30;;;;;;5051697;28;20056;-48
2023/07/10 10:24:42;;;;;;;7.70;1.75;;;25.30;59.90;;;;;;5064339;28;20115;-47
2023/07/10 10:27:29;;;;;;;;;;;25.50;60.20;;;;;;5062459;28;20029;-47
2023/07/10 10:30:32;;;;;;;6.38;2.08;;;25.70;61.70;;;;;;5067096;28;19904;-47
2023/07/10 10:32:58;;;;;;;5.13;2.13;;;25.30;59.60;;;;;;5067587;28;20021;-51
2023/07/10 10:35:45;;;;;;;7.18;1.70;;;25.30;60.40;;;;;;5070046;28;20024;-47
2023/07/10 10:39:09;;;;;;;6.10;1.98;;;25.40;59.80;;;;;;5068335;28;20352;-47
2023/07/10 10:42:04;;;;;;;4.43;1.63;;;25.30;58.50;;;;;;4987338;28;20383;-47
2023/07/10 10:44:57;;;;;;;4.60;1.67;;;25.50;61.50;;;;;;4988089;28;20034;-46
2023/07/10 10:47:47;;;;;;;5.75;1.98;;;25.90;57.80;;;;;;4982642;28;20268;-48
2023/07/10 10:50:39;;;;;;;6.32;1.83;;;25.40;58.70;;;;;;4985779;28;20448;-47
2023/07/10 10:53:42;;;;;;;4.68;1.83;;;24.60;61.00;;;;;;4986712;28;20524;-49
2023/07/10 10:56:28;;;;;;;6.65;1.95;;;25.10;61.40;;;;;;4985394;28;20066;-48
2023/07/10 10:59:25;;;;;;;4.72;1.88;;;25.10;60.60;;;;;;4970464;28;20042;-48
2023/07/10 11:02:01;;;;;;;5.25;2.15;;;25.30;60.80;;;;;;4983918;28;20364;-48
2023/07/10 11:04:46;;;;;;;5.35;1.90;;;24.80;60.70;;;;;;4982171;28;20026;-48
2023/07/10 11:07:15;;;;;;;6.45;1.90;;;25.10;63.10;;;;;;4966521;28;20662;-48
2023/07/10 11:09:53;;;;;;;5.00;2.05;;;25.50;63.90;;;;;;4986411;28;20038;-50
2023/07/10 11:12:24;;;;;;;5.20;1.95;;;25.70;59.60;;;;;;5023813;28;20115;-47
2023/07/10 11:14:55;;;;;;;5.32;2.10;;;25.80;61.80;;;;;;5065925;28;20031;-50
2023/07/10 11:17:22;;;;;;;4.88;2.08;;;25.60;57.60;;;;;;5061505;28;20381;-51
2023/07/10 11:19:51;;;;;;;7.68;1.88;;;25.60;59.80;;;;;;5065945;28;20367;-47
2023/07/10 11:22:34;;;;;;;6.43;2.33;;;25.30;58.00;;;;;;5065359;28;20040;-47
2023/07/10 11:25:02;;;;;;;6.40;2.10;;;25.00;61.90;;;;;;5063703;28;20032;-48
2023/07/10 11:27:47;;;;;;;7.15;2.53;;;24.90;62.70;;;;;;5048924;28;20020;-53
2023/07/10 11:30:15;;;;;;;6.30;1.63;;;24.30;63.20;;;;;;5064476;28;20081;-52
2023/07/10 11:33:02;;;;;;;5.80;1.93;;;23.90;64.70;;;;;;5065079;28;20029;-47
2023/07/10 11:35:30;;;;;;;6.22;2.13;;;23.60;65.10;;;;;;5061671;28;20086;-52
2023/07/10 11:38:04;;;;;;;6.07;2.33;;;23.70;65.10;;;;;;5046705;28;20024;-50
2023/07/10 11:40:49;;;;;;;9.80;2.40;;;23.50;66.00;;;;;;5066907;28;20021;-52
2023/07/10 11:43:30;;;;;;;6.65;2.22;;;23.60;67.30;;;;;;5062129;28;20351;-48
2023/07/10 11:46:17;;;;;;;6.32;2.55;;;24.10;65.70;;;;;;5065854;28;20024;-49
2023/07/10 11:49:04;;;;;;;6.82;1.70;;;24.60;63.50;;;;;;5067018;28;20109;-47
2023/07/10 11:51:35;;;;;;;6.60;1.85;;;24.50;63.00;;;;;;5063974;28;20112;-52
2023/07/10 11:54:12;;;;;;;5.20;1.90;;;24.30;63.90;;;;;;5044376;28;20458;-48
2023/07/10 11:56:59;;;;;;;5.45;1.52;;;24.70;66.10;;;;;;5064045;28;20042;-52
2023/07/10 11:59:26;;;;;;;7.50;2.17;;;25.00;63.00;;;;;;5061641;28;20064;-48
2023/07/10 12:01:52;;;;;;;9.20;2.25;;;25.10;63.50;;;;;;5062775;28;20032;-50
2023/07/10 12:04:22;;;;;;;5.80;1.98;;;24.90;64.10;;;;;;5040567;28;20465;-50
2023/07/10 12:06:52;;;;;;;9.38;2.10;;;24.90;62.80;;;;;;5063544;28;20033;-50
2023/07/10 12:09:23;;;;;;;4.25;1.70;;;24.90;63.10;;;;;;5060539;28;20543;-47
2023/07/10 12:11:55;;;;;;;6.28;2.15;;;25.10;64.20;;;;;;5062311;28;20036;-50
2023/07/10 12:14:27;;;;;;;5.07;2.45;;;24.70;64.80;;;;;;5063087;28;20590;-53
2023/07/10 12:16:59;;;;;;;6.68;2.30;;;24.30;66.00;;;;;;5060179;28;20029;-52
2023/07/10 12:19:31;;;;;;;6.32;2.33;;;23.90;68.30;;;;;;5063086;28;20640;-50
2023/07/10 12:22:16;;;;;;;8.15;2.63;;;24.00;69.70;;;;;;5064256;28;20039;-49
2023/07/10 12:24:55;;;;;;;6.68;2.65;;;24.40;70.20;;;;;;5064092;28;20036;-47
2023/07/10 12:27:23;;;;;;;7.05;2.42;;;24.80;67.90;;;;;;5062440;28;20540;-49
2023/07/10 12:29:55;;;;;;;7.68;2.53;;;24.50;68.90;;;;;;5060498;28;20395;-47
2023/07/10 12:32:24;;;;;;;9.25;2.25;;;24.20;69.70;;;;;;5042788;28;20039;-48
2023/07/10 12:34:54;;;;;;;8.93;2.75;;;23.90;69.50;;;;;;5059348;28;20503;-49
2023/07/10 12:37:22;;;;;;;12.48;2.60;;;24.10;69.70;;;;;;5043467;28;20143;-48
2023/07/10 12:39:51;;;;;;;11.32;2.67;;;24.00;70.60;;;;;;5040657;28;20040;-52
2023/07/10 12:42:37;;;;;;;7.40;2.80;;;23.90;69.20;;;;;;5058545;28;20031;-48
2023/07/10 12:45:15;;;;;;;9.40;2.60;;;23.60;69.10;;;;;;5042377;28;20032;-47
2023/07/10 12:47:48;;;;;;;6.72;2.17;;;23.70;69.20;;;;;;5060371;28;20108;-48
2023/07/10 12:50:14;;;;;;;5.35;2.05;;;23.70;69.30;;;;;;5060250;28;20039;-48
2023/07/10 12:52:42;;;;;;;6.25;2.33;;;23.50;69.10;;;;;;5060011;28;20520;-50
2023/07/10 12:55:17;;;;;;;7.70;2.40;;;23.40;69.30;;;;;;5060439;28;20032;-50
2023/07/10 12:57:44;;;;;;;12.90;3.75;;;23.40;68.40;;;;;;5067954;28;20289;-47
2023/07/10 13:00:16;;;;;;;6.65;2.90;;;23.30;69.20;;;;;;5055482;28;20039;-50